Arcola, IL

8:15 PM CDT on September 01, 2015 (GMT -0500)
Hettingers, Parkview Sub. | | Change Station
CLOSE
Current Station
Personal Weather Station
Location: Tuscola, IL
Elevation: 656 ft
Nearby Weather Stations

Elev 656 ft 39.81 °N, 88.29 °W | Updated 4 seconds ago

Partly Cloudy
Partly Cloudy
80.1 °F
Feels Like 80 °F
N
0.0
Wind Variable Wind from SE
Gusts 2.7 mph

Today
High -- | Low -- °F
--% Chance of Precip.
Yesterday
High -- | Low -- °F
Precip. -- in
6:21 AM 7:24 PM
Waning Gibbous, 85% visible
Pressure 30.08 in
Visibility 1.8 miles
Clouds Clear
Heat Index 80 °F
Dew Point 54 °F
Humidity 40%
Rainfall 0.31 in
Snow Depth Not available.
UV 0 out of 12
Pollen 10.40 out of 12
Air Quality Not available.
Flu Activity Not available.
SPECI KMTO 020106Z AUTO 17004KT 1 3/4SM HZ CLR 25/19 A3008 RMK AO2 T02500194
Pressure 30.08 in
Visibility 1.8 miles
Clouds Clear
Heat Index 80 °F
Dew Point 54 °F
Humidity 40%
Rainfall 0.31 in
Snow Depth Not available.
UV 0 out of 12
Pollen 10.40 out of 12
Air Quality Not available.
Flu Activity Not available.
SPECI KMTO 020106Z AUTO 17004KT 1 3/4SM HZ CLR 25/19 A3008 RMK AO2 T02500194

10-Day Weather Forecast

×

Almanac

Astronomy

Sep. 01, 2015 Rise Set
Actual Time
Civil Twilight
Nautical Twilight
Astronomical Twilight
Moon
Length of Visible Light
Length of Day
Tomorrow will be .
, % of the Moon is Illuminated

Today's Extremes

State Highs State Lows

Community

WunderPhotos

Upload Photos

1,851,667 photos uploaded!

WunderBlogs® & News

Nearby

Air Quality

  Air Quality AQ Index Pollutant
Not available.

Snow Depth

Station Depth Elevation

Earthquake Activity

City Distance Mag. Time & Date
Minimum magnitude displayed is 2.5.

Coastal Water Temperatures

Place Temperature

Stations

Nearby Weather Stations

Station Location Temp. Windchill Dew Point Humidity Wind Precip. Elev Updated Type